Time;durP1;ratioP1;P1;durP2;ratioP2;P2;SDS_P1;SDS_P2;PMS_P1;PMS_P2;Temp;Humidity;BMP_temperature;BMP_pressure;BME280_temperature;BME280_humidity;BME280_pressure;Samples;Min_cycle;Max_cycle;Signal;HPM_P1;HPM_P2
2022/07/19 00:02:15;;;;;;;;;;;;;;;;;;5053103;28;19921;-43
2022/07/19 00:04:40;;;;;;;;;;;;;;;;;;5052916;28;20267;-42
2022/07/19 00:07:05;;;;;;;;;;;;;;;;;;5052853;28;19913;-42
2022/07/19 00:09:30;;;;;;;;;;;;;;;;;;5052895;28;19913;-43
2022/07/19 00:11:56;;;;;;;;;;;;;;;;;;5052738;28;20317;-42
2022/07/19 00:14:21;;;;;;;;;;;;;;;;;;5052636;28;19948;-42
2022/07/19 00:16:46;;;;;;;;;;;;;;;;;;5052393;28;19974;-42
2022/07/19 00:19:11;;;;;;;;;;;;;;;;;;5052628;28;19963;-43
2022/07/19 00:21:37;;;;;;;;;;;;;;;;;;5052753;28;19966;-44
2022/07/19 00:24:02;;;;;;;;;;;;;;;;;;5052599;28;19928;-42
2022/07/19 00:26:27;;;;;;;;;;;;;;;;;;5052632;28;20374;-42
2022/07/19 00:28:54;;;;;;;;;;;;;;;;;;5052415;28;19965;-42
2022/07/19 00:31:19;;;;;;;;;;;;;;;;;;5052433;28;20011;-42
2022/07/19 00:33:45;;;;;;;;;;;;;;;;;;5052003;28;19955;-42
2022/07/19 00:36:10;;;;;;;;;;;;;;;;;;5051409;28;19915;-43
2022/07/19 00:38:35;;;;;;;;;;;;;;;;;;5052532;28;20362;-43
2022/07/19 00:41:01;;;;;;;;;;;;;;;;;;5052142;28;19920;-42
2022/07/19 00:43:26;;;;;;;;;;;;;;;;;;5052231;28;19955;-44
2022/07/19 00:45:51;;;;;;;;;;;;;;;;;;5052514;28;19909;-43
2022/07/19 00:48:16;;;;;;;;;;;;;;;;;;5052296;28;19904;-42
2022/07/19 00:50:41;;;;;;;;;;;;;;;;;;5052150;28;19920;-43
2022/07/19 00:53:07;;;;;;;;;;;;;;;;;;5051996;28;20003;-41
2022/07/19 00:55:32;;;;;;;;;;;;;;;;;;5051832;28;19909;-42
2022/07/19 00:57:57;;;;;;;;;;;;;;;;;;5052046;28;19905;-42
2022/07/19 01:00:23;;;;;;;;;;;;;;;;;;5052178;28;19967;-42
2022/07/19 01:02:48;;;;;;;;;;;;;;;;;;5051777;28;19924;-43
2022/07/19 01:05:13;;;;;;;;;;;;;;;;;;5051905;28;19909;-43
2022/07/19 01:07:38;;;;;;;;;;;;;;;;;;5051819;28;19912;-43
2022/07/19 01:10:04;;;;;;;;;;;;;;;;;;5052097;28;19908;-43
2022/07/19 01:12:29;;;;;;;;;;;;;;;;;;5052036;28;20003;-42
2022/07/19 01:14:54;;;;;;;;;;;;;;;;;;5051927;28;19971;-41
2022/07/19 01:17:20;;;;;;;;;;;;;;;;;;5051791;28;20321;-43
2022/07/19 01:19:45;;;;;;;;;;;;;;;;;;5051699;28;20318;-43
2022/07/19 01:22:10;;;;;;;;;;;;;;;;;;5051909;28;19912;-42
2022/07/19 01:24:36;;;;;;;;;;;;;;;;;;5051502;28;19952;-43
2022/07/19 01:27:01;;;;;;;;;;;;;;;;;;5051614;28;19909;-42
2022/07/19 01:29:26;;;;;;;;;;;;;;;;;;5051871;28;19913;-42
2022/07/19 01:31:52;;;;;;;;;;;;;;;;;;5051496;28;20000;-42
2022/07/19 01:34:17;;;;;;;;;;;;;;;;;;5051839;28;20003;-42
2022/07/19 01:36:42;;;;;;;;;;;;;;;;;;5051865;28;19904;-43
2022/07/19 01:39:07;;;;;;;;;;;;;;;;;;5051732;28;20381;-42
2022/07/19 01:41:33;;;;;;;;;;;;;;;;;;5051285;28;19913;-42
2022/07/19 01:43:58;;;;;;;;;;;;;;;;;;5052647;28;19916;-42
2022/07/19 01:46:23;;;;;;;;;;;;;;;;;;5054069;28;19905;-43
2022/07/19 01:48:49;;;;;;;;;;;;;;;;;;5055600;28;19912;-42
2022/07/19 01:51:14;;;;;;;;;;;;;;;;;;5055460;28;20373;-42
2022/07/19 01:53:39;;;;;;;;;;;;;;;;;;5055883;28;19919;-43
2022/07/19 01:56:04;;;;;;;;;;;;;;;;;;5055459;28;20428;-42
2022/07/19 01:58:30;;;;;;;;;;;;;;;;;;5055303;28;20378;-42
2022/07/19 02:00:59;;;;;;;;;;;;;;;;;;5055514;28;19909;-42
2022/07/19 02:03:25;;;;;;;;;;;;;;;;;;5055430;28;20343;-43
2022/07/19 02:05:50;;;;;;;;;;;;;;;;;;5055095;28;19904;-44
2022/07/19 02:08:16;;;;;;;;;;;;;;;;;;5055018;28;19934;-42
2022/07/19 02:10:41;;;;;;;;;;;;;;;;;;5055317;28;19905;-43
2022/07/19 02:13:06;;;;;;;;;;;;;;;;;;5055060;28;19909;-42
2022/07/19 02:15:31;;;;;;;;;;;;;;;;;;5054905;28;19917;-42
2022/07/19 02:17:57;;;;;;;;;;;;;;;;;;5055025;28;20390;-43
2022/07/19 02:20:22;;;;;;;;;;;;;;;;;;5054893;28;19958;-43
2022/07/19 02:22:47;;;;;;;;;;;;;;;;;;5054819;28;20378;-43
2022/07/19 02:25:12;;;;;;;;;;;;;;;;;;5054780;28;19912;-42
2022/07/19 02:27:38;;;;;;;;;;;;;;;;;;5054553;28;19908;-42
2022/07/19 02:30:03;;;;;;;;;;;;;;;;;;5055070;28;19904;-44
2022/07/19 02:32:28;;;;;;;;;;;;;;;;;;5054984;28;19988;-42
2022/07/19 02:34:54;;;;;;;;;;;;;;;;;;5054917;28;19952;-43
2022/07/19 02:37:19;;;;;;;;;;;;;;;;;;5054448;28;19908;-43
2022/07/19 02:39:45;;;;;;;;;;;;;;;;;;5054942;28;19904;-43
2022/07/19 02:42:10;;;;;;;;;;;;;;;;;;5054428;28;20248;-43
2022/07/19 02:44:35;;;;;;;;;;;;;;;;;;5054670;28;19916;-42
2022/07/19 02:47:00;;;;;;;;;;;;;;;;;;5054379;28;19935;-42
2022/07/19 02:49:25;;;;;;;;;;;;;;;;;;5054530;28;19905;-42
2022/07/19 02:51:51;;;;;;;;;;;;;;;;;;5054439;28;19908;-42
2022/07/19 02:54:16;;;;;;;;;;;;;;;;;;5054155;28;20374;-42
2022/07/19 02:56:41;;;;;;;;;;;;;;;;;;5053763;28;19912;-44
2022/07/19 02:59:07;;;;;;;;;;;;;;;;;;5054567;28;20007;-42
2022/07/19 03:01:32;;;;;;;;;;;;;;;;;;5054253;28;19917;-44
2022/07/19 03:03:57;;;;;;;;;;;;;;;;;;5054351;28;19904;-44
2022/07/19 03:06:22;;;;;;;;;;;;;;;;;;5053891;28;20283;-43
2022/07/19 03:08:48;;;;;;;;;;;;;;;;;;5054342;28;19909;-42
2022/07/19 03:11:13;;;;;;;;;;;;;;;;;;5054274;28;19916;-42
2022/07/19 03:13:38;;;;;;;;;;;;;;;;;;5053706;28;19912;-43
2022/07/19 03:16:04;;;;;;;;;;;;;;;;;;5053770;28;19952;-42
2022/07/19 03:18:29;;;;;;;;;;;;;;;;;;5053705;28;19904;-43
2022/07/19 03:20:55;;;;;;;;;;;;;;;;;;5053650;28;19912;-42
2022/07/19 03:23:20;;;;;;;;;;;;;;;;;;5053988;28;19905;-43
2022/07/19 03:25:45;;;;;;;;;;;;;;;;;;5053544;28;19967;-42
2022/07/19 03:28:11;;;;;;;;;;;;;;;;;;5053948;28;19911;-43
2022/07/19 03:30:36;;;;;;;;;;;;;;;;;;5053787;28;19917;-42
2022/07/19 03:33:01;;;;;;;;;;;;;;;;;;5053811;28;20290;-41
2022/07/19 03:35:26;;;;;;;;;;;;;;;;;;5053821;28;19912;-43
2022/07/19 03:37:52;;;;;;;;;;;;;;;;;;5053721;28;20339;-42
2022/07/19 03:40:17;;;;;;;;;;;;;;;;;;5053319;28;19908;-43
2022/07/19 03:42:42;;;;;;;;;;;;;;;;;;5053333;28;19916;-43
2022/07/19 03:45:08;;;;;;;;;;;;;;;;;;5053360;28;20064;-42
2022/07/19 03:47:33;;;;;;;;;;;;;;;;;;5053396;28;20433;-42
2022/07/19 03:49:58;;;;;;;;;;;;;;;;;;5053250;28;20367;-43
2022/07/19 03:52:23;;;;;;;;;;;;;;;;;;5053359;28;19905;-42
2022/07/19 03:54:49;;;;;;;;;;;;;;;;;;5053446;28;20008;-44
2022/07/19 03:57:14;;;;;;;;;;;;;;;;;;5053040;28;19959;-41
2022/07/19 03:59:39;;;;;;;;;;;;;;;;;;5053251;28;19908;-42
2022/07/19 04:02:04;;;;;;;;;;;;;;;;;;5053165;28;20040;-42
2022/07/19 04:04:30;;;;;;;;;;;;;;;;;;5053128;28;19916;-42
2022/07/19 04:06:55;;;;;;;;;;;;;;;;;;5052245;28;19928;-41
2022/07/19 04:09:20;;;;;;;;;;;;;;;;;;5052372;28;19912;-43
2022/07/19 04:11:45;;;;;;;;;;;;;;;;;;5052827;28;19905;-44
2022/07/19 04:14:11;;;;;;;;;;;;;;;;;;5053007;28;19909;-42
2022/07/19 04:16:36;;;;;;;;;;;;;;;;;;5052436;28;20291;-42
2022/07/19 04:19:01;;;;;;;;;;;;;;;;;;5052973;28;19916;-43
2022/07/19 04:21:27;;;;;;;;;;;;;;;;;;5052494;28;20031;-42
2022/07/19 04:23:52;;;;;;;;;;;;;;;;;;5052873;28;19913;-43
2022/07/19 04:26:17;;;;;;;;;;;;;;;;;;5052790;28;19915;-42
2022/07/19 04:28:42;;;;;;;;;;;;;;;;;;5052385;28;19908;-43
2022/07/19 04:31:08;;;;;;;;;;;;;;;;;;5052781;28;19911;-43
2022/07/19 04:33:33;;;;;;;;;;;;;;;;;;5052699;28;20282;-42
2022/07/19 04:35:58;;;;;;;;;;;;;;;;;;5052359;28;19920;-42
2022/07/19 04:38:24;;;;;;;;;;;;;;;;;;5052287;28;19909;-44
2022/07/19 04:40:49;;;;;;;;;;;;;;;;;;5052288;28;19940;-43
2022/07/19 04:43:14;;;;;;;;;;;;;;;;;;5052494;28;19912;-42
2022/07/19 04:45:41;;;;;;;;;;;;;;;;;;5052098;28;19909;-43
2022/07/19 04:48:07;;;;;;;;;;;;;;;;;;5052203;28;19909;-41
2022/07/19 04:50:32;;;;;;;;;;;;;;;;;;5052057;28;20523;-43
2022/07/19 04:52:57;;;;;;;;;;;;;;;;;;5052425;28;19912;-42
2022/07/19 04:55:22;;;;;;;;;;;;;;;;;;5052178;28;19997;-42
2022/07/19 04:57:48;;;;;;;;;;;;;;;;;;5052049;28;20317;-43
2022/07/19 05:00:13;;;;;;;;;;;;;;;;;;5051946;28;19915;-42
2022/07/19 05:02:38;;;;;;;;;;;;;;;;;;5052118;28;19928;-42
2022/07/19 05:05:03;;;;;;;;;;;;;;;;;;5052103;28;20006;-43
2022/07/19 05:07:29;;;;;;;;;;;;;;;;;;5052046;28;19923;-43
2022/07/19 05:09:54;;;;;;;;;;;;;;;;;;5051906;28;19909;-42
2022/07/19 05:12:20;;;;;;;;;;;;;;;;;;5051950;28;20006;-42
2022/07/19 05:14:45;;;;;;;;;;;;;;;;;;5052069;28;19905;-42
2022/07/19 05:17:11;;;;;;;;;;;;;;;;;;5051636;28;19917;-43
2022/07/19 05:19:36;;;;;;;;;;;;;;;;;;5051308;28;19913;-41
2022/07/19 05:22:01;;;;;;;;;;;;;;;;;;5051906;28;19956;-42
2022/07/19 05:24:26;;;;;;;;;;;;;;;;;;5051714;28;19951;-42
2022/07/19 05:26:52;;;;;;;;;;;;;;;;;;5050292;28;19917;-43
2022/07/19 05:29:17;;;;;;;;;;;;;;;;;;5051627;28;20373;-43
2022/07/19 05:31:42;;;;;;;;;;;;;;;;;;5051674;28;20000;-42
2022/07/19 05:34:08;;;;;;;;;;;;;;;;;;5051541;28;20248;-43
2022/07/19 05:36:33;;;;;;;;;;;;;;;;;;5051546;28;19999;-41
2022/07/19 05:38:59;;;;;;;;;;;;;;;;;;5051552;28;19908;-42
2022/07/19 05:41:24;;;;;;;;;;;;;;;;;;5051280;28;19923;-42
2022/07/19 05:43:50;;;;;;;;;;;;;;;;;;5051846;28;19904;-43
2022/07/19 05:46:16;;;;;;;;;;;;;;;;;;5051485;28;20461;-42
2022/07/19 05:48:42;;;;;;;;;;;;;;;;;;5051694;28;19909;-43
2022/07/19 05:51:07;;;;;;;;;;;;;;;;;;5051478;28;20333;-43
2022/07/19 05:53:32;;;;;;;;;;;;;;;;;;5051302;28;19956;-43
2022/07/19 05:55:57;;;;;;;;;;;;;;;;;;5051413;28;19912;-42
2022/07/19 05:58:24;;;;;;;;;;;;;;;;;;5051236;28;19944;-42
2022/07/19 06:03:33;;;;;;;;;;;;;;;;;;5051225;28;19963;-43
2022/07/19 06:05:59;;;;;;;;;;;;;;;;;;5051259;28;19951;-42
2022/07/19 06:08:24;;;;;;;;;;;;;;;;;;5051096;28;19913;-42
2022/07/19 06:10:50;;;;;;;;;;;;;;;;;;5051252;28;19905;-44
2022/07/19 06:13:15;;;;;;;;;;;;;;;;;;5051330;28;20349;-41
2022/07/19 06:15:40;;;;;;;;;;;;;;;;;;5051017;28;19924;-43
2022/07/19 06:18:06;;;;;;;;;;;;;;;;;;5051460;28;20350;-42
2022/07/19 06:20:31;;;;;;;;;;;;;;;;;;5049895;28;20347;-42
2022/07/19 06:22:56;;;;;;;;;;;;;;;;;;5051038;28;20023;-41
2022/07/19 06:25:22;;;;;;;;;;;;;;;;;;5051215;28;19908;-42
2022/07/19 06:27:47;;;;;;;;;;;;;;;;;;5051385;28;19917;-44
2022/07/19 06:30:13;;;;;;;;;;;;;;;;;;5051034;28;19905;-42
2022/07/19 06:32:39;;;;;;;;;;;;;;;;;;5054631;28;19913;-41
2022/07/19 06:35:04;;;;;;;;;;;;;;;;;;5055025;28;19911;-42
2022/07/19 06:37:29;;;;;;;;;;;;;;;;;;5054768;28;19909;-43
2022/07/19 06:39:55;;;;;;;;;;;;;;;;;;5054566;28;19963;-43
2022/07/19 06:42:20;;;;;;;;;;;;;;;;;;5054453;28;19959;-41
2022/07/19 06:44:45;;;;;;;;;;;;;;;;;;5054497;28;19905;-42
2022/07/19 06:47:11;;;;;;;;;;;;;;;;;;5054420;28;19954;-43
2022/07/19 06:49:36;;;;;;;;;;;;;;;;;;5054430;28;19928;-42
2022/07/19 06:52:01;;;;;;;;;;;;;;;;;;5054597;28;20419;-42
2022/07/19 06:54:27;;;;;;;;;;;;;;;;;;5054469;28;20256;-41
2022/07/19 06:56:53;;;;;;;;;;;;;;;;;;5054255;28;20003;-40
2022/07/19 06:59:18;;;;;;;;;;;;;;;;;;5054314;28;19943;-40
2022/07/19 07:01:44;;;;;;;;;;;;;;;;;;5054401;28;19953;-43
2022/07/19 07:04:09;;;;;;;;;;;;;;;;;;5054165;28;19923;-40
2022/07/19 07:06:35;;;;;;;;;;;;;;;;;;5053879;28;19913;-41
2022/07/19 07:09:02;;;;;;;;;;;;;;;;;;5054063;28;20003;-41
2022/07/19 07:11:28;;;;;;;;;;;;;;;;;;5053870;28;20050;-40
2022/07/19 07:13:53;;;;;;;;;;;;;;;;;;5054165;28;19999;-40
2022/07/19 07:16:19;;;;;;;;;;;;;;;;;;5053665;28;19925;-41
2022/07/19 07:18:44;;;;;;;;;;;;;;;;;;5053848;28;20381;-40
2022/07/19 07:21:10;;;;;;;;;;;;;;;;;;5053661;28;19923;-41
2022/07/19 07:23:35;;;;;;;;;;;;;;;;;;5053670;28;19940;-41
2022/07/19 07:26:01;;;;;;;;;;;;;;;;;;5053959;28;19919;-42
2022/07/19 07:28:26;;;;;;;;;;;;;;;;;;5053816;28;19939;-41
2022/07/19 07:30:51;;;;;;;;;;;;;;;;;;5053634;28;20312;-42
2022/07/19 07:33:17;;;;;;;;;;;;;;;;;;5053568;28;20356;-41
2022/07/19 07:35:43;;;;;;;;;;;;;;;;;;5053735;28;19913;-41
2022/07/19 07:38:08;;;;;;;;;;;;;;;;;;5053735;28;19905;-42
2022/07/19 07:40:33;;;;;;;;;;;;;;;;;;5053675;28;19913;-42
2022/07/19 07:42:59;;;;;;;;;;;;;;;;;;5053392;28;19966;-42
2022/07/19 07:45:25;;;;;;;;;;;;;;;;;;5053312;28;19909;-42
2022/07/19 07:47:50;;;;;;;;;;;;;;;;;;5053357;28;19905;-46
2022/07/19 07:50:15;;;;;;;;;;;;;;;;;;5053237;28;19913;-41
2022/07/19 07:52:41;;;;;;;;;;;;;;;;;;5053096;28;20011;-42
2022/07/19 07:55:06;;;;;;;;;;;;;;;;;;5053074;28;19912;-42
2022/07/19 07:57:32;;;;;;;;;;;;;;;;;;5053277;28;19944;-42
2022/07/19 07:59:58;;;;;;;;;;;;;;;;;;5053469;28;19915;-41
2022/07/19 08:02:23;;;;;;;;;;;;;;;;;;5051465;28;19916;-40
2022/07/19 08:04:49;;;;;;;;;;;;;;;;;;5053001;28;19912;-42
2022/07/19 08:07:14;;;;;;;;;;;;;;;;;;5053002;28;19904;-42
2022/07/19 08:09:39;;;;;;;;;;;;;;;;;;5052750;28;20397;-44
2022/07/19 08:12:05;;;;;;;;;;;;;;;;;;5052855;28;19909;-42
2022/07/19 08:14:30;;;;;;;;;;;;;;;;;;5052698;28;19912;-41
2022/07/19 08:16:55;;;;;;;;;;;;;;;;;;5052503;28;20043;-42
2022/07/19 08:19:21;;;;;;;;;;;;;;;;;;5052759;28;19916;-41
2022/07/19 08:21:46;;;;;;;;;;;;;;;;;;5052902;28;19970;-42
2022/07/19 08:24:12;;;;;;;;;;;;;;;;;;5052574;28;19916;-40
2022/07/19 08:26:37;;;;;;;;;;;;;;;;;;5052478;28;19956;-42
2022/07/19 08:29:03;;;;;;;;;;;;;;;;;;5052495;28;19915;-42
2022/07/19 08:31:28;;;;;;;;;;;;;;;;;;5052401;28;19944;-42
2022/07/19 08:33:54;;;;;;;;;;;;;;;;;;5052733;28;19908;-41
2022/07/19 08:36:19;;;;;;;;;;;;;;;;;;5052380;28;19920;-41
2022/07/19 08:38:46;;;;;;;;;;;;;;;;;;5052402;28;19916;-41
2022/07/19 08:41:11;;;;;;;;;;;;;;;;;;5052192;28;20373;-42
2022/07/19 08:43:36;;;;;;;;;;;;;;;;;;5052637;28;19908;-41
2022/07/19 08:46:02;;;;;;;;;;;;;;;;;;5052143;28;20325;-42
2022/07/19 08:48:28;;;;;;;;;;;;;;;;;;5052158;28;20355;-42
2022/07/19 08:50:56;;;;;;;;;;;;;;;;;;5052470;28;20240;-42
2022/07/19 08:53:21;;;;;;;;;;;;;;;;;;5051652;28;19931;-43
2022/07/19 08:55:49;;;;;;;;;;;;;;;;;;5052395;28;19912;-42
2022/07/19 08:58:15;;;;;;;;;;;;;;;;;;5051992;28;20378;-43
2022/07/19 09:00:41;;;;;;;;;;;;;;;;;;5051892;28;19908;-41
2022/07/19 09:03:06;;;;;;;;;;;;;;;;;;5052163;28;19927;-43
2022/07/19 09:05:33;;;;;;;;;;;;;;;;;;5051787;28;20363;-41
2022/07/19 09:08:01;;;;;;;;;;;;;;;;;;5051854;28;19967;-41
2022/07/19 09:10:26;;;;;;;;;;;;;;;;;;5052103;28;19932;-41
2022/07/19 09:12:52;;;;;;;;;;;;;;;;;;5051911;28;19959;-41
2022/07/19 09:15:17;;;;;;;;;;;;;;;;;;5051808;28;20244;-41
2022/07/19 09:17:42;;;;;;;;;;;;;;;;;;5051919;28;19939;-42
2022/07/19 09:20:08;;;;;;;;;;;;;;;;;;5052066;28;19916;-41
2022/07/19 09:22:33;;;;;;;;;;;;;;;;;;5050262;28;19971;-41
2022/07/19 09:24:59;;;;;;;;;;;;;;;;;;5050367;28;19908;-42
2022/07/19 09:27:27;;;;;;;;;;;;;;;;;;5051584;28;19908;-41
2022/07/19 09:29:53;;;;;;;;;;;;;;;;;;5051669;28;19951;-42
2022/07/19 09:32:18;;;;;;;;;;;;;;;;;;5051611;28;19909;-40
2022/07/19 09:34:43;;;;;;;;;;;;;;;;;;5051473;28;19912;-46
2022/07/19 09:37:09;;;;;;;;;;;;;;;;;;5051508;28;19913;-41
2022/07/19 09:39:39;;;;;;;;;;;;;;;;;;5051512;28;19905;-41
2022/07/19 09:42:05;;;;;;;;;;;;;;;;;;5050396;28;19917;-41
2022/07/19 09:44:30;;;;;;;;;;;;;;;;;;5051671;28;20051;-43
2022/07/19 09:46:55;;;;;;;;;;;;;;;;;;5051368;28;19986;-41
2022/07/19 09:49:21;;;;;;;;;;;;;;;;;;5051682;28;20382;-41
2022/07/19 09:51:46;;;;;;;;;;;;;;;;;;5051468;28;19948;-43
2022/07/19 09:54:12;;;;;;;;;;;;;;;;;;5051508;28;19912;-41
2022/07/19 09:56:38;;;;;;;;;;;;;;;;;;5051599;28;20353;-41
2022/07/19 09:59:03;;;;;;;;;;;;;;;;;;5051755;28;20362;-41
2022/07/19 10:01:29;;;;;;;;;;;;;;;;;;5051494;28;20317;-41
2022/07/19 10:03:56;;;;;;;;;;;;;;;;;;5051222;28;20286;-41
2022/07/19 10:06:23;;;;;;;;;;;;;;;;;;5053247;28;19908;-41
2022/07/19 10:08:50;;;;;;;;;;;;;;;;;;5055585;28;19905;-40
2022/07/19 10:11:16;;;;;;;;;;;;;;;;;;5055111;28;19908;-42
2022/07/19 10:13:41;;;;;;;;;;;;;;;;;;5055302;28;19916;-41
2022/07/19 10:16:06;;;;;;;;;;;;;;;;;;5054873;28;19917;-41
2022/07/19 10:18:31;;;;;;;;;;;;;;;;;;5054859;28;19905;-41
2022/07/19 10:21:00;;;;;;;;;;;;;;;;;;5055187;28;19908;-42
2022/07/19 10:23:25;;;;;;;;;;;;;;;;;;5054927;28;19916;-42
2022/07/19 10:25:51;;;;;;;;;;;;;;;;;;5054805;28;19909;-41
2022/07/19 10:28:16;;;;;;;;;;;;;;;;;;5053633;28;19904;-42
2022/07/19 10:30:41;;;;;;;;;;;;;;;;;;5053574;28;19916;-42
2022/07/19 10:33:07;;;;;;;;;;;;;;;;;;5054834;28;19952;-42
2022/07/19 10:35:32;;;;;;;;;;;;;;;;;;5054539;28;19913;-41
2022/07/19 10:37:57;;;;;;;;;;;;;;;;;;5054904;28;19905;-42
2022/07/19 10:40:23;;;;;;;;;;;;;;;;;;5054533;28;19909;-42
2022/07/19 10:42:48;;;;;;;;;;;;;;;;;;5054889;28;20403;-41
2022/07/19 10:45:14;;;;;;;;;;;;;;;;;;5054750;28;20003;-43
2022/07/19 10:47:39;;;;;;;;;;;;;;;;;;5054350;28;19962;-42
2022/07/19 10:50:04;;;;;;;;;;;;;;;;;;5054679;28;19908;-41
2022/07/19 10:52:30;;;;;;;;;;;;;;;;;;5054599;28;19912;-42
2022/07/19 10:54:56;;;;;;;;;;;;;;;;;;5054187;28;20003;-41
2022/07/19 10:57:21;;;;;;;;;;;;;;;;;;5054432;28;19992;-41
2022/07/19 10:59:51;;;;;;;;;;;;;;;;;;5054259;28;20278;-41
2022/07/19 11:02:16;;;;;;;;;;;;;;;;;;5054336;28;19958;-41
2022/07/19 11:04:45;;;;;;;;;;;;;;;;;;5054010;28;19915;-41
2022/07/19 11:07:10;;;;;;;;;;;;;;;;;;5054406;28;19905;-41
2022/07/19 11:09:38;;;;;;;;;;;;;;;;;;5054048;28;19976;-41
2022/07/19 11:12:03;;;;;;;;;;;;;;;;;;5054076;28;19911;-41
2022/07/19 11:14:30;;;;;;;;;;;;;;;;;;5054084;28;19940;-41
2022/07/19 11:16:55;;;;;;;;;;;;;;;;;;5053151;28;20401;-43
2022/07/19 11:19:20;;;;;;;;;;;;;;;;;;5052919;28;19920;-41
2022/07/19 11:21:46;;;;;;;;;;;;;;;;;;5053608;28;19963;-42
2022/07/19 11:24:11;;;;;;;;;;;;;;;;;;5053825;28;19908;-41
2022/07/19 11:26:36;;;;;;;;;;;;;;;;;;5053916;28;20262;-41
2022/07/19 11:29:02;;;;;;;;;;;;;;;;;;5053877;28;19909;-41
2022/07/19 11:31:27;;;;;;;;;;;;;;;;;;5053603;28;19905;-41
2022/07/19 11:33:56;;;;;;;;;;;;;;;;;;5053635;28;19909;-41
2022/07/19 11:36:21;;;;;;;;;;;;;;;;;;5053455;28;20374;-41
2022/07/19 11:38:47;;;;;;;;;;;;;;;;;;5053562;28;19909;-41
2022/07/19 11:41:13;;;;;;;;;;;;;;;;;;5053324;28;19959;-41
2022/07/19 11:43:38;;;;;;;;;;;;;;;;;;5053286;28;19908;-43
2022/07/19 11:46:03;;;;;;;;;;;;;;;;;;5053330;28;19912;-42
2022/07/19 11:48:29;;;;;;;;;;;;;;;;;;5053567;28;19956;-42
2022/07/19 11:50:55;;;;;;;;;;;;;;;;;;5053227;28;19958;-41
2022/07/19 11:53:20;;;;;;;;;;;;;;;;;;5053115;28;19915;-42
2022/07/19 11:55:48;;;;;;;;;;;;;;;;;;5053262;28;19999;-41
2022/07/19 11:58:14;;;;;;;;;;;;;;;;;;5053108;28;20346;-41
2022/07/19 12:00:43;;;;;;;;;;;;;;;;;;5053095;28;19912;-41
2022/07/19 12:03:08;;;;;;;;;;;;;;;;;;5053017;28;19921;-41
2022/07/19 12:05:35;;;;;;;;;;;;;;;;;;5052780;28;19915;-40
2022/07/19 12:08:02;;;;;;;;;;;;;;;;;;5052999;28;19916;-42
2022/07/19 12:10:30;;;;;;;;;;;;;;;;;;5053116;28;19905;-42
2022/07/19 12:12:58;;;;;;;;;;;;;;;;;;5052794;28;20359;-41
2022/07/19 12:15:24;;;;;;;;;;;;;;;;;;5051399;28;19912;-41
2022/07/19 12:17:50;;;;;;;;;;;;;;;;;;5053068;28;20286;-41
2022/07/19 12:20:15;;;;;;;;;;;;;;;;;;5052744;28;19905;-42
2022/07/19 12:22:41;;;;;;;;;;;;;;;;;;5052461;28;19923;-42
2022/07/19 12:25:08;;;;;;;;;;;;;;;;;;5052548;28;19920;-41
2022/07/19 12:27:34;;;;;;;;;;;;;;;;;;5052370;28;19916;-41
2022/07/19 12:29:59;;;;;;;;;;;;;;;;;;5051805;28;20727;-43
2022/07/19 12:32:25;;;;;;;;;;;;;;;;;;5052410;28;19909;-42
2022/07/19 12:34:50;;;;;;;;;;;;;;;;;;5052460;28;20429;-41
2022/07/19 12:37:16;;;;;;;;;;;;;;;;;;5052721;28;19955;-41
2022/07/19 12:39:41;;;;;;;;;;;;;;;;;;5052497;28;19995;-44
2022/07/19 12:42:07;;;;;;;;;;;;;;;;;;5052244;28;20286;-42
2022/07/19 12:44:32;;;;;;;;;;;;;;;;;;5052178;28;20294;-42
2022/07/19 12:46:58;;;;;;;;;;;;;;;;;;5052251;28;19995;-42
2022/07/19 12:49:23;;;;;;;;;;;;;;;;;;5052216;28;19905;-42
2022/07/19 12:51:49;;;;;;;;;;;;;;;;;;5052109;28;20424;-41
2022/07/19 12:54:14;;;;;;;;;;;;;;;;;;5052029;28;19904;-42
2022/07/19 12:56:39;;;;;;;;;;;;;;;;;;5051976;28;19912;-42
2022/07/19 13:01:49;;;;;;;;;;;;;;;;;;5051819;28;19924;-41
2022/07/19 13:04:14;;;;;;;;;;;;;;;;;;5051969;28;20000;-42
2022/07/19 13:06:39;;;;;;;;;;;;;;;;;;5052030;28;19996;-42
2022/07/19 13:09:05;;;;;;;;;;;;;;;;;;5051975;28;20317;-41
2022/07/19 13:11:30;;;;;;;;;;;;;;;;;;5051799;28;19916;-42
2022/07/19 13:13:55;;;;;;;;;;;;;;;;;;5051935;28;19904;-41
2022/07/19 13:16:22;;;;;;;;;;;;;;;;;;5051517;28;19917;-42
2022/07/19 13:18:49;;;;;;;;;;;;;;;;;;5051683;28;19908;-41
2022/07/19 13:21:15;;;;;;;;;;;;;;;;;;5051765;28;20469;-42
2022/07/19 13:23:40;;;;;;;;;;;;;;;;;;5051505;28;20007;-42
2022/07/19 13:26:06;;;;;;;;;;;;;;;;;;5051725;28;19909;-42
2022/07/19 13:28:31;;;;;;;;;;;;;;;;;;5051967;28;20255;-43
2022/07/19 13:31:00;;;;;;;;;;;;;;;;;;5051538;28;19942;-42
2022/07/19 13:33:25;;;;;;;;;;;;;;;;;;5051673;28;19909;-41
2022/07/19 13:35:51;;;;;;;;;;;;;;;;;;5051490;28;19919;-41
2022/07/19 13:38:17;;;;;;;;;;;;;;;;;;5051891;28;19908;-42
2022/07/19 13:40:43;;;;;;;;;;;;;;;;;;5054025;28;19913;-40
2022/07/19 13:43:09;;;;;;;;;;;;;;;;;;5055667;28;19916;-42
2022/07/19 13:45:34;;;;;;;;;;;;;;;;;;5055491;28;19908;-43
2022/07/19 13:48:00;;;;;;;;;;;;;;;;;;5055645;28;20453;-42
2022/07/19 13:50:26;;;;;;;;;;;;;;;;;;5055551;28;19908;-41
2022/07/19 13:52:51;;;;;;;;;;;;;;;;;;5055566;28;19913;-42
2022/07/19 13:55:17;;;;;;;;;;;;;;;;;;5055398;28;19912;-41
2022/07/19 13:57:43;;;;;;;;;;;;;;;;;;5055342;28;19904;-40
2022/07/19 14:00:10;;;;;;;;;;;;;;;;;;5055717;28;19908;-42
2022/07/19 14:02:38;;;;;;;;;;;;;;;;;;5055261;28;19921;-42
2022/07/19 14:05:04;;;;;;;;;;;;;;;;;;5055306;28;19913;-41
2022/07/19 14:07:29;;;;;;;;;;;;;;;;;;5054986;28;19958;-41
2022/07/19 14:09:55;;;;;;;;;;;;;;;;;;5055507;28;19953;-41
2022/07/19 14:12:20;;;;;;;;;;;;;;;;;;5055123;28;19995;-43
2022/07/19 14:14:45;;;;;;;;;;;;;;;;;;5055282;28;19913;-42
2022/07/19 14:17:10;;;;;;;;;;;;;;;;;;5054851;28;20464;-41
2022/07/19 14:19:37;;;;;;;;;;;;;;;;;;5054886;28;19912;-42
2022/07/19 14:22:03;;;;;;;;;;;;;;;;;;5055156;28;19917;-44
2022/07/19 14:24:28;;;;;;;;;;;;;;;;;;5055144;28;19913;-41
2022/07/19 14:26:54;;;;;;;;;;;;;;;;;;5055117;28;19905;-41
2022/07/19 14:29:19;;;;;;;;;;;;;;;;;;5054824;28;19958;-42
2022/07/19 14:31:45;;;;;;;;;;;;;;;;;;5053451;28;20640;-42
2022/07/19 14:34:10;;;;;;;;;;;;;;;;;;5053529;28;19913;-41
2022/07/19 14:36:36;;;;;;;;;;;;;;;;;;5053300;28;19987;-42
2022/07/19 14:39:01;;;;;;;;;;;;;;;;;;5054827;28;19916;-41
2022/07/19 14:41:29;;;;;;;;;;;;;;;;;;5054419;28;19913;-41
2022/07/19 14:43:55;;;;;;;;;;;;;;;;;;5054875;28;19908;-41
2022/07/19 14:46:20;;;;;;;;;;;;;;;;;;5054799;28;19905;-41
2022/07/19 14:48:46;;;;;;;;;;;;;;;;;;5054363;28;19913;-42
2022/07/19 14:51:11;;;;;;;;;;;;;;;;;;5052344;28;19909;-42
2022/07/19 14:53:36;;;;;;;;;;;;;;;;;;5054216;28;19912;-41
2022/07/19 14:56:02;;;;;;;;;;;;;;;;;;5054263;28;19908;-41
2022/07/19 14:58:27;;;;;;;;;;;;;;;;;;5054487;28;20286;-41
2022/07/19 15:00:53;;;;;;;;;;;;;;;;;;5054219;28;20038;-42
2022/07/19 15:03:19;;;;;;;;;;;;;;;;;;5054234;28;19920;-43
2022/07/19 15:05:45;;;;;;;;;;;;;;;;;;5054382;28;19905;-40
2022/07/19 15:08:11;;;;;;;;;;;;;;;;;;5054150;28;19916;-42
2022/07/19 15:10:36;;;;;;;;;;;;;;;;;;5054230;28;19905;-42
2022/07/19 15:13:02;;;;;;;;;;;;;;;;;;5054038;28;19909;-41
2022/07/19 15:15:28;;;;;;;;;;;;;;;;;;5053866;28;19909;-41
2022/07/19 15:17:53;;;;;;;;;;;;;;;;;;5054184;28;19995;-40
2022/07/19 15:20:22;;;;;;;;;;;;;;;;;;5053936;28;19911;-41
2022/07/19 15:22:47;;;;;;;;;;;;;;;;;;5053746;28;19943;-41
2022/07/19 15:25:15;;;;;;;;;;;;;;;;;;5053654;28;20612;-41
2022/07/19 15:27:41;;;;;;;;;;;;;;;;;;5053665;28;19909;-41
2022/07/19 15:30:06;;;;;;;;;;;;;;;;;;5053706;28;19959;-42
2022/07/19 15:32:31;;;;;;;;;;;;;;;;;;5053667;28;19912;-41
2022/07/19 15:34:57;;;;;;;;;;;;;;;;;;5053627;28;19905;-41
2022/07/19 15:37:22;;;;;;;;;;;;;;;;;;5053823;28;19908;-42
2022/07/19 15:39:47;;;;;;;;;;;;;;;;;;5053533;28;19912;-42
2022/07/19 15:42:13;;;;;;;;;;;;;;;;;;5053392;28;19923;-41
2022/07/19 15:44:38;;;;;;;;;;;;;;;;;;5053594;28;19974;-41
2022/07/19 15:47:04;;;;;;;;;;;;;;;;;;5053359;28;20415;-41
2022/07/19 15:49:29;;;;;;;;;;;;;;;;;;5053610;28;19966;-42
2022/07/19 15:51:55;;;;;;;;;;;;;;;;;;5052265;28;20381;-42
2022/07/19 15:54:20;;;;;;;;;;;;;;;;;;5053051;28;20393;-41
2022/07/19 15:56:46;;;;;;;;;;;;;;;;;;5053420;28;19912;-42
2022/07/19 15:59:11;;;;;;;;;;;;;;;;;;5053047;28;19909;-41
2022/07/19 16:01:36;;;;;;;;;;;;;;;;;;5053002;28;19916;-41
2022/07/19 16:04:02;;;;;;;;;;;;;;;;;;5053044;28;19904;-41
2022/07/19 16:06:27;;;;;;;;;;;;;;;;;;5052964;28;19909;-41
2022/07/19 16:08:52;;;;;;;;;;;;;;;;;;5053033;28;19905;-42
2022/07/19 16:11:18;;;;;;;;;;;;;;;;;;5052950;28;19908;-42
2022/07/19 16:13:43;;;;;;;;;;;;;;;;;;5053281;28;19909;-42
2022/07/19 16:16:09;;;;;;;;;;;;;;;;;;5051267;28;20433;-41
2022/07/19 16:18:34;;;;;;;;;;;;;;;;;;5051416;28;19924;-41
2022/07/19 16:20:59;;;;;;;;;;;;;;;;;;5052657;28;19912;-41
2022/07/19 16:23:25;;;;;;;;;;;;;;;;;;5052640;28;19912;-41
2022/07/19 16:25:50;;;;;;;;;;;;;;;;;;5052822;28;19909;-42
2022/07/19 16:28:15;;;;;;;;;;;;;;;;;;5052614;28;20401;-42
2022/07/19 16:30:41;;;;;;;;;;;;;;;;;;5052534;28;19931;-41
2022/07/19 16:33:06;;;;;;;;;;;;;;;;;;5052800;28;19992;-41
2022/07/19 16:35:32;;;;;;;;;;;;;;;;;;5052394;28;19909;-41
2022/07/19 16:37:59;;;;;;;;;;;;;;;;;;5052427;28;20351;-41
2022/07/19 16:40:24;;;;;;;;;;;;;;;;;;5051214;28;19944;-42